createdAt,value
2023-05-02T00:01:18.863Z,94408.06
2023-05-02T00:03:45.978Z,94408.69
2023-05-02T00:06:13.068Z,94416.72
2023-05-02T00:08:39.775Z,94416.44
2023-05-02T00:11:06.423Z,94407.13
2023-05-02T00:13:33.060Z,94408.78
2023-05-02T00:15:59.693Z,94404.72
2023-05-02T00:18:26.251Z,94416.91
2023-05-02T00:20:52.955Z,94419.34
2023-05-02T00:23:19.559Z,94426.44
2023-05-02T00:25:46.639Z,94429.72
2023-05-02T00:28:13.929Z,94431.38
2023-05-02T00:30:46.885Z,94434.22
2023-05-02T00:33:15.062Z,94431.03
2023-05-02T00:35:42.301Z,94431.16
2023-05-02T00:38:09.269Z,94435.56
2023-05-02T00:40:51.267Z,94442.28
2023-05-02T00:43:18.030Z,94437.34
2023-05-02T00:45:46.501Z,94443.53
2023-05-02T00:48:13.923Z,94445.59
2023-05-02T00:50:42.896Z,94451.06
2023-05-02T00:53:10.696Z,94449.50
2023-05-02T00:55:37.821Z,94445.66
2023-05-02T00:58:08.907Z,94441.41
2023-05-02T01:01:03.415Z,94443.22
2023-05-02T01:03:46.323Z,94436.19
2023-05-02T01:06:18.793Z,94433.94
2023-05-02T01:08:55.969Z,94430.81
2023-05-02T01:12:04.842Z,94430.13
2023-05-02T01:14:36.277Z,94429.47
2023-05-02T01:17:05.648Z,94426.38
2023-05-02T01:19:36.885Z,94421.22
2023-05-02T01:22:08.065Z,94413.94
2023-05-02T01:24:59.905Z,94408.13
2023-05-02T01:27:48.485Z,94406.50
2023-05-02T01:30:18.074Z,94413.03
2023-05-02T01:32:47.281Z,94413.69
2023-05-02T01:35:18.057Z,94408.03
2023-05-02T01:37:47.209Z,94416.13
2023-05-02T01:40:18.398Z,94427.38
2023-05-02T01:42:47.214Z,94423.00
2023-05-02T01:45:16.223Z,94426.38
2023-05-02T01:47:44.944Z,94426.88
2023-05-02T01:50:16.853Z,94423.22
2023-05-02T01:52:45.622Z,94419.41
2023-05-02T01:55:15.258Z,94418.66
2023-05-02T01:57:44.457Z,94422.56
2023-05-02T02:00:12.863Z,94419.00
2023-05-02T02:02:43.871Z,94422.50
2023-05-02T02:05:11.457Z,94421.91
2023-05-02T02:07:38.228Z,94415.03
2023-05-02T02:10:05.270Z,94420.31
2023-05-02T02:12:38.715Z,94415.09
2023-05-02T02:15:19.786Z,94417.00
2023-05-02T02:17:50.269Z,94421.16
2023-05-02T02:20:17.811Z,94422.28
2023-05-02T02:22:45.495Z,94418.88
2023-05-02T02:25:14.581Z,94427.91
2023-05-02T02:27:41.893Z,94432.69
2023-05-02T02:30:11.672Z,94430.09
2023-05-02T02:32:38.590Z,94427.59
2023-05-02T02:35:06.084Z,94436.50
2023-05-02T02:37:37.698Z,94434.34
2023-05-02T02:40:25.112Z,94440.19
2023-05-02T02:42:57.749Z,94431.56
2023-05-02T02:45:45.544Z,94443.78
2023-05-02T02:48:29.986Z,94448.69
2023-05-02T02:51:16.072Z,94450.69
2023-05-02T02:54:27.160Z,94448.56
2023-05-02T02:57:06.394Z,94462.63
2023-05-02T02:59:36.914Z,94471.16
2023-05-02T03:02:08.669Z,94466.53
2023-05-02T03:04:40.814Z,94464.16
2023-05-02T03:07:07.638Z,94469.16
2023-05-02T03:09:45.092Z,94471.50
2023-05-02T03:12:12.293Z,94471.09
2023-05-02T03:14:39.609Z,94470.56
2023-05-02T03:17:10.674Z,94473.03
2023-05-02T03:19:37.495Z,94468.94
2023-05-02T03:22:04.953Z,94469.38
2023-05-02T03:24:31.635Z,94472.56
2023-05-02T03:27:01.838Z,94477.09
2023-05-02T03:29:28.903Z,94483.56
2023-05-02T03:31:55.627Z,94476.69
2023-05-02T03:34:22.425Z,94481.00
2023-05-02T03:36:49.317Z,94474.06
2023-05-02T03:39:15.951Z,94473.28
2023-05-02T03:41:43.967Z,94477.50
2023-05-02T03:44:11.108Z,94471.81
2023-05-02T03:46:38.107Z,94478.13
2023-05-02T03:49:04.846Z,94482.38
2023-05-02T03:51:33.816Z,94479.75
2023-05-02T03:54:02.689Z,94479.88
2023-05-02T03:56:29.315Z,94483.03
2023-05-02T03:58:55.962Z,94486.06
2023-05-02T04:01:22.646Z,94488.13
2023-05-02T04:03:50.674Z,94483.84
2023-05-02T04:06:17.450Z,94482.09
2023-05-02T04:08:44.076Z,94479.75
2023-05-02T04:11:10.750Z,94482.03
2023-05-02T04:13:37.354Z,94485.50
2023-05-02T04:16:04.923Z,94481.31
2023-05-02T04:18:31.601Z,94484.22
2023-05-02T04:20:58.253Z,94473.59
2023-05-02T04:23:24.850Z,94478.03
2023-05-02T04:25:54.002Z,94479.34
2023-05-02T04:28:24.132Z,94481.72
2023-05-02T04:30:51.630Z,94473.66
2023-05-02T04:33:18.877Z,94474.69
2023-05-02T04:35:46.245Z,94479.59
2023-05-02T04:38:12.971Z,94475.75
2023-05-02T04:40:40.034Z,94485.16
2023-05-02T04:43:06.744Z,94479.47
2023-05-02T04:45:36.267Z,94481.88
2023-05-02T04:48:04.025Z,94484.75
2023-05-02T04:50:32.204Z,94485.16
2023-05-02T04:52:59.618Z,94485.03
2023-05-02T04:55:26.466Z,94486.34
2023-05-02T04:57:53.082Z,94484.94
2023-05-02T05:00:19.805Z,94484.88
2023-05-02T05:02:46.544Z,94486.72
2023-05-02T05:05:13.320Z,94485.81
2023-05-02T05:07:39.986Z,94492.16
2023-05-02T05:10:08.112Z,94492.00
2023-05-02T05:12:34.683Z,94481.00
2023-05-02T05:15:02.278Z,94491.84
2023-05-02T05:17:28.973Z,94495.63
2023-05-02T05:19:55.945Z,94489.84
2023-05-02T05:22:22.836Z,94485.81
2023-05-02T05:24:54.020Z,94494.66
2023-05-02T05:27:20.851Z,94497.38
2023-05-02T05:29:47.816Z,94488.53
2023-05-02T05:32:14.678Z,94498.47
2023-05-02T05:34:41.397Z,94498.22
2023-05-02T05:37:08.340Z,94494.59
2023-05-02T05:39:34.917Z,94499.75
2023-05-02T05:42:02.673Z,94502.16
2023-05-02T05:44:29.453Z,94497.66
2023-05-02T05:46:56.441Z,94509.06
2023-05-02T05:49:24.328Z,94505.44
2023-05-02T05:51:51.078Z,94514.94
2023-05-02T05:54:18.683Z,94518.19
2023-05-02T05:56:45.957Z,94517.25
2023-05-02T05:59:12.686Z,94518.63
2023-05-02T06:01:39.514Z,94511.78
2023-05-02T06:04:07.546Z,94514.69
2023-05-02T06:06:34.693Z,94524.91
2023-05-02T06:09:01.768Z,94520.59
2023-05-02T06:11:28.416Z,94513.16
2023-05-02T06:13:55.099Z,94509.50
2023-05-02T06:16:21.855Z,94511.81
2023-05-02T06:18:52.143Z,94502.25
2023-05-02T06:21:19.038Z,94503.41
2023-05-02T06:23:46.088Z,94513.72
2023-05-02T06:26:12.711Z,94511.53
2023-05-02T06:28:39.339Z,94501.94
2023-05-02T06:31:06.486Z,94515.94
2023-05-02T06:33:34.158Z,94510.59
2023-05-02T06:36:01.902Z,94509.78
2023-05-02T06:38:29.249Z,94507.34
2023-05-02T06:40:56.077Z,94506.50
2023-05-02T06:43:22.820Z,94509.78
2023-05-02T06:45:52.476Z,94518.97
2023-05-02T06:48:19.269Z,94509.56
2023-05-02T06:50:45.975Z,94509.59
2023-05-02T06:53:12.597Z,94507.69
2023-05-02T06:55:39.243Z,94509.16
2023-05-02T06:58:05.840Z,94506.22
2023-05-02T07:00:32.584Z,94500.28
2023-05-02T07:02:59.297Z,94507.84
2023-05-02T07:05:25.945Z,94505.59
2023-05-02T07:07:52.610Z,94500.84
2023-05-02T07:10:19.300Z,94509.97
2023-05-02T07:12:45.962Z,94513.50
2023-05-02T07:15:13.966Z,94505.84
2023-05-02T07:17:41.138Z,94517.06
2023-05-02T07:20:08.543Z,94510.09
2023-05-02T07:22:35.171Z,94510.25
2023-05-02T07:25:03.135Z,94518.63
2023-05-02T07:27:29.799Z,94520.50
2023-05-02T07:29:56.515Z,94514.41
2023-05-02T07:32:24.879Z,94523.31
2023-05-02T07:34:54.256Z,94521.16
2023-05-02T07:37:21.370Z,94519.47
2023-05-02T07:39:48.071Z,94525.03
2023-05-02T07:42:14.825Z,94519.41
2023-05-02T07:44:41.611Z,94530.81
2023-05-02T07:47:09.035Z,94523.22
2023-05-02T07:49:36.969Z,94526.97
2023-05-02T07:52:04.517Z,94528.19
2023-05-02T07:54:31.257Z,94527.22
2023-05-02T07:57:02.358Z,94525.41
2023-05-02T07:59:31.225Z,94520.03
2023-05-02T08:01:58.079Z,94522.66
2023-05-02T08:04:25.140Z,94520.66
2023-05-02T08:06:52.034Z,94518.03
2023-05-02T08:09:18.810Z,94516.09
2023-05-02T08:11:45.827Z,94520.19
2023-05-02T08:14:12.826Z,94519.28
2023-05-02T08:16:39.596Z,94524.06
2023-05-02T08:19:06.238Z,94522.31
2023-05-02T08:21:33.200Z,94526.72
2023-05-02T08:24:00.622Z,94526.97
2023-05-02T08:26:30.615Z,94516.84
2023-05-02T08:28:57.251Z,94517.59
2023-05-02T08:31:26.842Z,94517.47
2023-05-02T08:33:56.445Z,94523.03
2023-05-02T08:36:25.317Z,94520.31
2023-05-02T08:38:51.923Z,94521.03
2023-05-02T08:41:19.252Z,94518.78
2023-05-02T08:43:47.264Z,94520.31
2023-05-02T08:46:16.693Z,94520.28
2023-05-02T08:48:48.231Z,94522.66
2023-05-02T08:51:16.926Z,94513.69
2023-05-02T08:53:44.184Z,94519.94
2023-05-02T08:56:12.518Z,94515.47
2023-05-02T08:58:41.093Z,94508.25
2023-05-02T09:01:15.359Z,94523.44
2023-05-02T09:03:44.911Z,94509.34
2023-05-02T09:06:13.600Z,94507.97
2023-05-02T09:08:41.574Z,94510.25
2023-05-02T09:11:10.459Z,94513.38
2023-05-02T09:13:42.934Z,94498.78
2023-05-02T09:16:15.562Z,94505.34
2023-05-02T09:18:46.285Z,94519.91
2023-05-02T09:21:20.683Z,94509.44
2023-05-02T09:23:48.967Z,94507.59
2023-05-02T09:26:33.493Z,94501.72
2023-05-02T09:29:02.345Z,94502.34
2023-05-02T09:34:12.991Z,94487.81
2023-05-02T09:36:42.145Z,94495.16
2023-05-02T09:39:13.931Z,94499.97
2023-05-02T09:41:45.382Z,94490.31
2023-05-02T09:44:13.589Z,94490.69
2023-05-02T09:46:51.905Z,94481.38
2023-05-02T09:49:19.318Z,94484.38
2023-05-02T09:51:49.282Z,94486.00
2023-05-02T09:54:37.381Z,94484.38
2023-05-02T09:57:04.763Z,94476.94
2023-05-02T09:59:31.455Z,94482.59
2023-05-02T10:02:03.805Z,94485.19
2023-05-02T10:04:32.534Z,94483.84
2023-05-02T10:07:00.198Z,94480.63
2023-05-02T10:09:28.352Z,94469.22
2023-05-02T10:11:56.597Z,94464.13
2023-05-02T10:14:29.456Z,94459.63
2023-05-02T10:17:10.091Z,94458.25
2023-05-02T10:20:05.377Z,94455.13
2023-05-02T10:22:33.856Z,94468.47
2023-05-02T10:25:03.658Z,94463.03
2023-05-02T10:27:32.139Z,94455.56
2023-05-02T10:30:00.633Z,94453.63
2023-05-02T10:32:29.659Z,94447.41
2023-05-02T10:35:05.017Z,94438.19
2023-05-02T10:37:36.520Z,94443.34
2023-05-02T10:40:03.823Z,94438.91
2023-05-02T10:42:31.211Z,94439.13
2023-05-02T10:44:58.220Z,94432.34
2023-05-02T10:47:27.192Z,94431.41
2023-05-02T10:50:00.108Z,94433.81
2023-05-02T10:52:35.388Z,94428.97
2023-05-02T10:55:13.784Z,94430.53
2023-05-02T10:57:58.829Z,94427.72
2023-05-02T11:00:26.115Z,94425.63
2023-05-02T11:02:52.956Z,94429.41
2023-05-02T11:05:19.728Z,94435.94
2023-05-02T11:07:46.666Z,94427.00
2023-05-02T11:10:20.429Z,94430.97
2023-05-02T11:12:49.153Z,94428.81
2023-05-02T11:15:27.961Z,94432.09
2023-05-02T11:18:07.805Z,94421.34
2023-05-02T11:20:35.963Z,94419.38
2023-05-02T11:23:15.381Z,94422.09
2023-05-02T11:25:44.044Z,94417.06
2023-05-02T11:28:37.074Z,94412.72
2023-05-02T11:31:30.189Z,94399.97
2023-05-02T11:34:01.613Z,94399.16
2023-05-02T11:36:35.685Z,94403.88
2023-05-02T11:39:05.897Z,94404.19
2023-05-02T11:41:39.919Z,94396.09
2023-05-02T11:44:06.702Z,94387.28
2023-05-02T11:46:36.530Z,94389.91
2023-05-02T11:49:03.399Z,94378.38
2023-05-02T11:51:31.737Z,94386.59
2023-05-02T11:53:58.496Z,94381.94
2023-05-02T11:56:26.614Z,94379.56
2023-05-02T11:59:01.065Z,94385.47
2023-05-02T12:01:28.381Z,94380.22
2023-05-02T12:04:07.496Z,94369.13
2023-05-02T12:06:35.278Z,94367.03
2023-05-02T12:09:09.707Z,94360.91
2023-05-02T12:11:38.314Z,94368.63
2023-05-02T12:14:08.437Z,94358.22
2023-05-02T12:16:35.454Z,94347.38
2023-05-02T12:19:02.505Z,94356.03
2023-05-02T12:21:38.450Z,94346.81
2023-05-02T12:24:05.415Z,94351.00
2023-05-02T12:26:33.756Z,94354.00
2023-05-02T12:29:02.759Z,94342.56
2023-05-02T12:31:31.615Z,94340.91
2023-05-02T12:34:00.273Z,94328.25
2023-05-02T12:36:30.759Z,94330.47
2023-05-02T12:39:04.479Z,94322.41
2023-05-02T12:41:46.658Z,94316.28
2023-05-02T12:44:13.236Z,94311.97
2023-05-02T12:46:58.848Z,94300.88
2023-05-02T12:49:25.585Z,94302.63
2023-05-02T12:51:58.361Z,94296.41
2023-05-02T12:54:26.660Z,94298.63
2023-05-02T12:56:53.336Z,94292.16
2023-05-02T12:59:32.507Z,94303.97
2023-05-02T13:02:00.526Z,94291.28
2023-05-02T13:04:41.549Z,94301.94
2023-05-02T13:07:08.496Z,94286.75
2023-05-02T13:09:35.125Z,94291.63
2023-05-02T13:12:03.511Z,94286.78
2023-05-02T13:14:30.481Z,94284.84
2023-05-02T13:16:57.374Z,94290.22
2023-05-02T13:19:24.110Z,94293.44
2023-05-02T13:21:50.792Z,94284.88
2023-05-02T13:24:17.639Z,94287.88
2023-05-02T13:26:44.456Z,94283.13
2023-05-02T13:29:12.738Z,94285.53
2023-05-02T13:34:06.148Z,94297.03
2023-05-02T13:36:32.778Z,94286.06
2023-05-02T13:38:59.402Z,94281.84
2023-05-02T13:41:26.071Z,94285.19
2023-05-02T13:43:53.406Z,94289.38
2023-05-02T13:46:20.026Z,94281.38
2023-05-02T13:48:46.647Z,94283.13
2023-05-02T13:51:13.267Z,94277.72
2023-05-02T13:53:39.839Z,94270.06
2023-05-02T13:56:06.554Z,94271.16
2023-05-02T13:58:33.194Z,94272.75
2023-05-02T14:01:01.190Z,94286.72
2023-05-02T14:03:27.962Z,94282.66
2023-05-02T14:05:54.642Z,94284.50
2023-05-02T14:08:21.243Z,94284.22
2023-05-02T14:10:47.829Z,94288.44
2023-05-02T14:13:14.472Z,94279.66
2023-05-02T14:15:41.130Z,94274.34
2023-05-02T14:18:07.831Z,94278.97
2023-05-02T14:20:34.536Z,94281.81
2023-05-02T14:23:01.230Z,94288.38
2023-05-02T14:25:27.830Z,94290.78
2023-05-02T14:27:54.372Z,94282.00
2023-05-02T14:30:21.308Z,94282.06
2023-05-02T14:32:47.948Z,94285.38
2023-05-02T14:35:14.603Z,94283.06
2023-05-02T14:37:44.965Z,94284.50
2023-05-02T14:40:12.435Z,94278.78
2023-05-02T14:42:39.013Z,94277.09
2023-05-02T14:45:06.495Z,94278.22
2023-05-02T14:47:33.286Z,94281.25
2023-05-02T14:50:01.210Z,94276.06
2023-05-02T14:52:27.934Z,94275.06
2023-05-02T14:54:54.699Z,94284.44
2023-05-02T14:57:21.414Z,94282.47
2023-05-02T14:59:48.016Z,94280.91
2023-05-02T15:02:14.765Z,94278.00
2023-05-02T15:04:41.569Z,94283.19
2023-05-02T15:07:08.357Z,94280.38
2023-05-02T15:09:35.083Z,94278.44
2023-05-02T15:12:02.948Z,94281.31
2023-05-02T15:14:29.515Z,94270.47
2023-05-02T15:16:56.295Z,94273.41
2023-05-02T15:19:25.132Z,94274.63
2023-05-02T15:21:57.253Z,94269.72
2023-05-02T15:24:27.049Z,94269.63
2023-05-02T15:26:53.760Z,94275.91
2023-05-02T15:29:20.527Z,94274.81
2023-05-02T15:31:47.170Z,94286.44
2023-05-02T15:34:13.959Z,94269.66
2023-05-02T15:36:40.768Z,94268.59
2023-05-02T15:39:07.493Z,94274.47
2023-05-02T15:41:34.090Z,94271.47
2023-05-02T15:44:01.847Z,94266.53
2023-05-02T15:46:28.657Z,94271.19
2023-05-02T15:48:55.496Z,94274.34
2023-05-02T15:51:22.124Z,94267.16
2023-05-02T15:53:52.434Z,94269.25
2023-05-02T15:56:21.232Z,94272.50
2023-05-02T15:58:48.414Z,94268.09
2023-05-02T16:01:15.159Z,94267.06
2023-05-02T16:03:42.126Z,94268.00
2023-05-02T16:06:09.328Z,94267.50
2023-05-02T16:08:36.213Z,94264.41
2023-05-02T16:11:02.862Z,94270.50
2023-05-02T16:13:29.473Z,94270.19
2023-05-02T16:15:56.240Z,94260.78
2023-05-02T16:18:28.491Z,94257.72
2023-05-02T16:20:58.506Z,94261.63
2023-05-02T16:23:26.082Z,94265.97
2023-05-02T16:26:02.498Z,94267.31
2023-05-02T16:28:29.424Z,94268.31
2023-05-02T16:30:56.301Z,94263.22
2023-05-02T16:33:23.125Z,94262.75
2023-05-02T16:35:49.771Z,94269.34
2023-05-02T16:38:16.513Z,94272.66
2023-05-02T16:40:43.146Z,94272.03
2023-05-02T16:43:09.853Z,94274.16
2023-05-02T16:45:36.404Z,94277.13
2023-05-02T16:48:04.582Z,94265.75
2023-05-02T16:50:31.718Z,94267.63
2023-05-02T16:52:58.326Z,94267.34
2023-05-02T16:55:24.899Z,94271.91
2023-05-02T16:57:51.479Z,94271.63
2023-05-02T17:00:18.530Z,94281.69
2023-05-02T17:02:45.393Z,94272.81
2023-05-02T17:05:12.110Z,94282.25
2023-05-02T17:07:38.752Z,94286.69
2023-05-02T17:10:06.115Z,94288.25
2023-05-02T17:12:33.314Z,94286.25
2023-05-02T17:15:01.459Z,94287.63
2023-05-02T17:17:28.953Z,94295.22
2023-05-02T17:19:55.604Z,94292.16
2023-05-02T17:22:22.424Z,94296.31
2023-05-02T17:24:52.862Z,94302.31
2023-05-02T17:27:19.883Z,94311.63
2023-05-02T17:29:46.655Z,94320.47
2023-05-02T17:32:15.733Z,94315.47
2023-05-02T17:34:43.529Z,94313.16
2023-05-02T17:37:10.537Z,94307.75
2023-05-02T17:39:37.218Z,94316.16
2023-05-02T17:42:03.892Z,94326.28
2023-05-02T17:44:36.146Z,94329.00
2023-05-02T17:47:03.394Z,94331.28
2023-05-02T17:49:30.028Z,94327.84
2023-05-02T17:51:56.989Z,94323.91
2023-05-02T17:54:23.708Z,94339.78
2023-05-02T17:56:50.696Z,94330.53
2023-05-02T17:59:17.521Z,94329.72
2023-05-02T18:01:44.183Z,94332.47
2023-05-02T18:04:12.974Z,94332.41
2023-05-02T18:06:39.861Z,94327.03
2023-05-02T18:09:07.407Z,94338.66
2023-05-02T18:11:35.223Z,94343.22
2023-05-02T18:14:04.210Z,94332.44
2023-05-02T18:16:32.133Z,94355.19
2023-05-02T18:18:58.806Z,94351.41
2023-05-02T18:21:26.206Z,94341.34
2023-05-02T18:23:52.815Z,94344.06
2023-05-02T18:26:19.609Z,94350.56
2023-05-02T18:28:53.009Z,94343.66
2023-05-02T18:31:20.402Z,94345.59
2023-05-02T18:33:47.211Z,94333.25
2023-05-02T18:36:15.696Z,94339.81
2023-05-02T18:38:42.315Z,94337.09
2023-05-02T18:41:09.437Z,94340.59
2023-05-02T18:43:36.282Z,94347.13
2023-05-02T18:46:03.032Z,94329.72
2023-05-02T18:48:29.805Z,94334.72
2023-05-02T18:50:57.004Z,94341.16
2023-05-02T18:53:26.268Z,94336.09
2023-05-02T18:55:56.430Z,94341.97
2023-05-02T18:58:23.377Z,94332.72
2023-05-02T19:00:51.013Z,94344.50
2023-05-02T19:03:18.166Z,94347.22
2023-05-02T19:05:45.749Z,94349.97
2023-05-02T19:08:12.403Z,94353.00
2023-05-02T19:10:39.162Z,94356.09
2023-05-02T19:13:05.813Z,94360.75
2023-05-02T19:15:34.154Z,94365.25
2023-05-02T19:18:00.942Z,94365.56
2023-05-02T19:20:29.356Z,94363.72
2023-05-02T19:23:07.148Z,94374.69
2023-05-02T19:25:42.221Z,94372.97
2023-05-02T19:28:08.853Z,94366.41
2023-05-02T19:30:35.438Z,94370.13
2023-05-02T19:33:02.038Z,94364.13
2023-05-02T19:35:29.448Z,94371.09
2023-05-02T19:37:56.089Z,94370.72
2023-05-02T19:40:22.728Z,94378.03
2023-05-02T19:42:49.342Z,94377.31
2023-05-02T19:45:16.121Z,94381.13
2023-05-02T19:47:44.229Z,94379.50
2023-05-02T19:50:14.061Z,94369.72
2023-05-02T19:52:41.704Z,94369.91
2023-05-02T19:55:09.535Z,94371.09
2023-05-02T19:57:36.691Z,94369.50
2023-05-02T20:00:03.752Z,94371.72
2023-05-02T20:02:31.201Z,94371.72
2023-05-02T20:04:57.834Z,94369.53
2023-05-02T20:07:24.540Z,94363.22
2023-05-02T20:09:51.218Z,94375.25
2023-05-02T20:12:17.964Z,94368.34
2023-05-02T20:14:44.570Z,94370.44
2023-05-02T20:17:11.993Z,94357.69
2023-05-02T20:19:38.662Z,94364.25
2023-05-02T20:22:05.298Z,94356.84
2023-05-02T20:24:31.940Z,94359.28
2023-05-02T20:26:58.583Z,94354.22
2023-05-02T20:29:25.376Z,94346.59
2023-05-02T20:31:52.838Z,94352.34
2023-05-02T20:34:20.707Z,94356.31
2023-05-02T20:36:47.547Z,94353.19
2023-05-02T20:39:15.967Z,94352.00
2023-05-02T20:41:43.313Z,94358.81
2023-05-02T20:44:10.001Z,94346.03
2023-05-02T20:46:36.814Z,94361.19
2023-05-02T20:49:03.504Z,94355.78
2023-05-02T20:51:30.368Z,94360.97
2023-05-02T20:53:57.057Z,94349.09
2023-05-02T20:56:23.784Z,94348.63
2023-05-02T20:58:50.836Z,94342.06
2023-05-02T21:01:17.523Z,94335.44
2023-05-02T21:03:44.319Z,94329.75
2023-05-02T21:06:11.028Z,94328.00
2023-05-02T21:08:37.716Z,94333.13
2023-05-02T21:11:13.444Z,94320.94
2023-05-02T21:13:40.948Z,94325.13
2023-05-02T21:16:18.169Z,94324.47
2023-05-02T21:18:46.541Z,94322.53
2023-05-02T21:21:13.469Z,94328.78
2023-05-02T21:23:40.188Z,94333.34
2023-05-02T21:26:08.344Z,94339.41
2023-05-02T21:28:35.062Z,94338.59
2023-05-02T21:31:02.192Z,94342.25
2023-05-02T21:33:28.958Z,94348.38
2023-05-02T21:35:59.334Z,94356.28
2023-05-02T21:38:26.645Z,94348.63
2023-05-02T21:40:53.518Z,94350.25
2023-05-02T21:43:20.811Z,94357.25
2023-05-02T21:45:48.722Z,94360.56
2023-05-02T21:48:16.497Z,94366.47
2023-05-02T21:50:44.185Z,94363.06
2023-05-02T21:53:10.934Z,94374.03
2023-05-02T21:55:39.666Z,94371.13
2023-05-02T21:58:08.011Z,94367.97
2023-05-02T22:00:38.057Z,94377.84
2023-05-02T22:03:08.198Z,94371.59
2023-05-02T22:05:35.924Z,94371.88
2023-05-02T22:08:02.919Z,94385.50
2023-05-02T22:10:30.235Z,94386.56
2023-05-02T22:12:56.900Z,94380.06
2023-05-02T22:15:23.578Z,94383.47
2023-05-02T22:17:50.721Z,94383.22
2023-05-02T22:20:17.473Z,94370.47
2023-05-02T22:22:44.754Z,94374.91
2023-05-02T22:25:11.450Z,94372.25
2023-05-02T22:27:38.063Z,94370.81
2023-05-02T22:30:05.453Z,94387.75
2023-05-02T22:32:32.177Z,94385.81
2023-05-02T22:34:59.272Z,94393.38
2023-05-02T22:37:25.866Z,94387.66
2023-05-02T22:39:53.610Z,94384.31
2023-05-02T22:42:20.807Z,94371.22
2023-05-02T22:44:54.497Z,94371.66
2023-05-02T22:47:21.892Z,94378.34
2023-05-02T22:49:49.260Z,94389.00
2023-05-02T22:52:18.382Z,94376.91
2023-05-02T22:54:45.123Z,94370.53
2023-05-02T22:57:11.755Z,94357.50
2023-05-02T22:59:38.368Z,94344.22
2023-05-02T23:02:05.238Z,94361.41
2023-05-02T23:04:33.521Z,94358.03
2023-05-02T23:07:00.238Z,94347.34
2023-05-02T23:09:26.919Z,94354.19
2023-05-02T23:11:53.606Z,94357.84
2023-05-02T23:14:21.916Z,94344.13
2023-05-02T23:16:53.965Z,94327.97
2023-05-02T23:19:20.729Z,94344.66
2023-05-02T23:21:47.340Z,94345.19
2023-05-02T23:24:14.066Z,94360.66
2023-05-02T23:26:41.089Z,94354.75
2023-05-02T23:29:07.736Z,94345.78
2023-05-02T23:31:34.538Z,94352.28
2023-05-02T23:34:02.725Z,94347.47
2023-05-02T23:36:29.448Z,94339.69
2023-05-02T23:38:56.218Z,94357.97
2023-05-02T23:41:23.012Z,94340.53
2023-05-02T23:43:49.849Z,94332.13
2023-05-02T23:46:16.782Z,94335.88
2023-05-02T23:48:43.528Z,94353.09
2023-05-02T23:51:10.393Z,94345.44
2023-05-02T23:53:37.054Z,94354.16
2023-05-02T23:56:03.872Z,94351.47
2023-05-02T23:58:30.526Z,94353.09
